King William's Town, South Africa
Current Conditions -  °F | °C
As of 8:00 PM on Tuesday 27 Jan 2015 (Local Time) from FAEL Reporting Station
Overcast Overcast  
Wind Chill: 64°   Ceiling: 4500
Heat Index: 64°   Visibility: 6mi
Dew Point: 64°   Wind: 3mph
Humidity: 100%   Direction: 310°NW
Pressure: 30.09"   Gusts: NA
Location:  32.88°S, 27.4°E
Report Text: FAEL 271800Z 31003KT 9999 FEW012 SCT025 OVC045 18/18 Q1019
Loading
Personal Weather Stations






























Interactive Weather Map New forecast layout! Learn more

10-Day Weather Forecast

Advertisements
Track Severe Weather on mobile